sensor_id;sensor_type;location;lat;lon;timestamp;pressure;altitude;pressure_sealevel;temperature;humidity
9899;BME280;4988;49.238;6.698;2022-12-29T00:02:10;98484.25;;;10.52;98.88
9899;BME280;4988;49.238;6.698;2022-12-29T00:04:36;98495.75;;;10.53;98.87
9899;BME280;4988;49.238;6.698;2022-12-29T00:07:01;98488.88;;;10.49;99.26
9899;BME280;4988;49.238;6.698;2022-12-29T00:09:29;98487.06;;;10.49;99.57
9899;BME280;4988;49.238;6.698;2022-12-29T00:11:55;98488.19;;;10.45;100.00
9899;BME280;4988;49.238;6.698;2022-12-29T00:14:20;98488.34;;;10.42;100.00
9899;BME280;4988;49.238;6.698;2022-12-29T00:17:04;98485.88;;;10.39;100.00
9899;BME280;4988;49.238;6.698;2022-12-29T00:19:30;98475.38;;;10.36;100.00
9899;BME280;4988;49.238;6.698;2022-12-29T00:22:14;98473.94;;;10.30;100.00
9899;BME280;4988;49.238;6.698;2022-12-29T00:25:13;98482.31;;;10.22;100.00
9899;BME280;4988;49.238;6.698;2022-12-29T00:27:57;98474.19;;;10.25;100.00
9899;BME280;4988;49.238;6.698;2022-12-29T00:30:41;98476.25;;;10.20;100.00
9899;BME280;4988;49.238;6.698;2022-12-29T00:33:28;98485.94;;;10.21;100.00
9899;BME280;4988;49.238;6.698;2022-12-29T00:36:30;98470.91;;;10.20;100.00
9899;BME280;4988;49.238;6.698;2022-12-29T00:38:59;98468.75;;;10.11;100.00
9899;BME280;4988;49.238;6.698;2022-12-29T00:41:44;98462.16;;;10.02;100.00
9899;BME280;4988;49.238;6.698;2022-12-29T00:44:28;98460.66;;;9.96;100.00
9899;BME280;4988;49.238;6.698;2022-12-29T00:46:53;98466.25;;;9.92;100.00
9899;BME280;4988;49.238;6.698;2022-12-29T00:49:18;98467.34;;;9.88;100.00
9899;BME280;4988;49.238;6.698;2022-12-29T00:52:03;98440.94;;;9.85;100.00
9899;BME280;4988;49.238;6.698;2022-12-29T00:54:30;98441.09;;;9.81;100.00
9899;BME280;4988;49.238;6.698;2022-12-29T00:56:56;98438.53;;;9.80;100.00
9899;BME280;4988;49.238;6.698;2022-12-29T00:59:22;98460.41;;;9.85;100.00
9899;BME280;4988;49.238;6.698;2022-12-29T01:01:49;98450.22;;;9.93;100.00
9899;BME280;4988;49.238;6.698;2022-12-29T01:04:15;98453.81;;;9.92;100.00
9899;BME280;4988;49.238;6.698;2022-12-29T01:06:41;98459.91;;;9.94;100.00
9899;BME280;4988;49.238;6.698;2022-12-29T01:09:07;98458.19;;;9.93;100.00
9899;BME280;4988;49.238;6.698;2022-12-29T01:11:52;98446.63;;;9.94;100.00
9899;BME280;4988;49.238;6.698;2022-12-29T01:14:18;98445.41;;;10.00;100.00
9899;BME280;4988;49.238;6.698;2022-12-29T01:16:44;98446.28;;;10.01;100.00
9899;BME280;4988;49.238;6.698;2022-12-29T01:19:10;98450.72;;;10.00;100.00
9899;BME280;4988;49.238;6.698;2022-12-29T01:21:35;98428.59;;;10.00;100.00
9899;BME280;4988;49.238;6.698;2022-12-29T01:24:01;98428.97;;;10.09;100.00
9899;BME280;4988;49.238;6.698;2022-12-29T01:26:26;98431.19;;;10.01;100.00
9899;BME280;4988;49.238;6.698;2022-12-29T01:28:51;98432.06;;;10.02;100.00
9899;BME280;4988;49.238;6.698;2022-12-29T01:31:17;98417.81;;;10.03;100.00
9899;BME280;4988;49.238;6.698;2022-12-29T01:33:43;98418.81;;;10.00;100.00
9899;BME280;4988;49.238;6.698;2022-12-29T01:36:13;98417.81;;;10.03;100.00
9899;BME280;4988;49.238;6.698;2022-12-29T01:38:40;98414.38;;;10.01;100.00
9899;BME280;4988;49.238;6.698;2022-12-29T01:41:08;98423.44;;;9.96;100.00
9899;BME280;4988;49.238;6.698;2022-12-29T01:43:40;98412.66;;;10.00;100.00
9899;BME280;4988;49.238;6.698;2022-12-29T01:51:30;98422.50;;;9.97;100.00
9899;BME280;4988;49.238;6.698;2022-12-29T01:53:57;98426.03;;;9.98;100.00
9899;BME280;4988;49.238;6.698;2022-12-29T01:56:23;98426.97;;;9.97;100.00
9899;BME280;4988;49.238;6.698;2022-12-29T01:58:55;98425.84;;;10.01;100.00
9899;BME280;4988;49.238;6.698;2022-12-29T02:01:25;98429.41;;;10.02;100.00
9899;BME280;4988;49.238;6.698;2022-12-29T02:03:50;98417.81;;;10.03;100.00
9899;BME280;4988;49.238;6.698;2022-12-29T02:06:29;98429.31;;;10.03;100.00
9899;BME280;4988;49.238;6.698;2022-12-29T02:08:56;98426.75;;;10.02;100.00
9899;BME280;4988;49.238;6.698;2022-12-29T02:11:24;98421.22;;;10.05;100.00
9899;BME280;4988;49.238;6.698;2022-12-29T02:13:51;98414.81;;;10.09;100.00
9899;BME280;4988;49.238;6.698;2022-12-29T02:25:20;98403.16;;;10.11;100.00
9899;BME280;4988;49.238;6.698;2022-12-29T02:30:44;98404.78;;;10.14;100.00
9899;BME280;4988;49.238;6.698;2022-12-29T02:39:27;98379.56;;;10.21;99.01
9899;BME280;4988;49.238;6.698;2022-12-29T02:45:04;98383.31;;;10.17;99.24
9899;BME280;4988;49.238;6.698;2022-12-29T02:50:29;98375.44;;;10.16;99.17
9899;BME280;4988;49.238;6.698;2022-12-29T02:53:00;98365.47;;;10.19;98.54
9899;BME280;4988;49.238;6.698;2022-12-29T02:55:27;98372.66;;;10.17;98.57
9899;BME280;4988;49.238;6.698;2022-12-29T02:58:18;98373.53;;;10.18;98.57
9899;BME280;4988;49.238;6.698;2022-12-29T03:15:33;98365.47;;;10.03;99.25
9899;BME280;4988;49.238;6.698;2022-12-29T03:18:50;98360.50;;;9.97;99.85
9899;BME280;4988;49.238;6.698;2022-12-29T03:21:19;98358.00;;;9.94;100.00
9899;BME280;4988;49.238;6.698;2022-12-29T03:23:48;98359.22;;;9.88;100.00
9899;BME280;4988;49.238;6.698;2022-12-29T03:26:16;98340.88;;;9.84;100.00
9899;BME280;4988;49.238;6.698;2022-12-29T03:28:50;98350.66;;;9.83;100.00
9899;BME280;4988;49.238;6.698;2022-12-29T03:31:19;98342.34;;;9.89;100.00
9899;BME280;4988;49.238;6.698;2022-12-29T03:33:46;98327.25;;;9.90;100.00
9899;BME280;4988;49.238;6.698;2022-12-29T03:36:20;98330.69;;;9.92;100.00
9899;BME280;4988;49.238;6.698;2022-12-29T03:38:59;98323.75;;;9.89;100.00
9899;BME280;4988;49.238;6.698;2022-12-29T03:41:30;98335.47;;;9.85;100.00
9899;BME280;4988;49.238;6.698;2022-12-29T03:43:55;98330.09;;;9.87;100.00
9899;BME280;4988;49.238;6.698;2022-12-29T03:46:21;98327.34;;;9.88;100.00
9899;BME280;4988;49.238;6.698;2022-12-29T03:48:46;98333.41;;;9.90;99.33
9899;BME280;4988;49.238;6.698;2022-12-29T03:51:12;98333.94;;;9.97;98.91
9899;BME280;4988;49.238;6.698;2022-12-29T03:53:37;98333.25;;;9.93;98.83
9899;BME280;4988;49.238;6.698;2022-12-29T03:56:02;98337.53;;;9.96;98.82
9899;BME280;4988;49.238;6.698;2022-12-29T03:58:28;98339.16;;;9.98;99.27
9899;BME280;4988;49.238;6.698;2022-12-29T04:00:53;98329.56;;;9.96;99.28
9899;BME280;4988;49.238;6.698;2022-12-29T04:03:18;98340.09;;;9.97;98.95
9899;BME280;4988;49.238;6.698;2022-12-29T04:05:44;98340.97;;;9.98;99.28
9899;BME280;4988;49.238;6.698;2022-12-29T04:08:09;98329.66;;;9.94;99.61
9899;BME280;4988;49.238;6.698;2022-12-29T04:10:34;98331.38;;;9.95;99.55
9899;BME280;4988;49.238;6.698;2022-12-29T04:13:00;98327.00;;;9.94;99.31
9899;BME280;4988;49.238;6.698;2022-12-29T04:15:25;98334.38;;;9.89;99.72
9899;BME280;4988;49.238;6.698;2022-12-29T04:17:51;98329.22;;;9.86;99.74
9899;BME280;4988;49.238;6.698;2022-12-29T04:20:17;98330.84;;;9.89;99.46
9899;BME280;4988;49.238;6.698;2022-12-29T04:23:02;98339.69;;;9.89;99.56
9899;BME280;4988;49.238;6.698;2022-12-29T04:25:28;98335.91;;;9.93;98.90
9899;BME280;4988;49.238;6.698;2022-12-29T04:27:55;98336.84;;;9.92;99.13
9899;BME280;4988;49.238;6.698;2022-12-29T04:30:20;98336.00;;;9.92;99.37
9899;BME280;4988;49.238;6.698;2022-12-29T04:32:45;98337.44;;;9.97;98.67
9899;BME280;4988;49.238;6.698;2022-12-29T04:35:10;98339.06;;;10.00;99.11
9899;BME280;4988;49.238;6.698;2022-12-29T04:37:36;98340.88;;;10.00;99.48
9899;BME280;4988;49.238;6.698;2022-12-29T04:40:01;98348.94;;;9.98;100.00
9899;BME280;4988;49.238;6.698;2022-12-29T04:42:26;98335.81;;;9.95;100.00
9899;BME280;4988;49.238;6.698;2022-12-29T04:44:52;98340.03;;;9.99;100.00
9899;BME280;4988;49.238;6.698;2022-12-29T04:47:17;98331.38;;;9.95;100.00
9899;BME280;4988;49.238;6.698;2022-12-29T04:49:42;98327.94;;;9.93;100.00
9899;BME280;4988;49.238;6.698;2022-12-29T04:52:07;98342.16;;;9.92;100.00
9899;BME280;4988;49.238;6.698;2022-12-29T04:54:33;98320.47;;;9.84;100.00
9899;BME280;4988;49.238;6.698;2022-12-29T04:56:59;98328.38;;;9.86;100.00
9899;BME280;4988;49.238;6.698;2022-12-29T04:59:24;98336.69;;;9.79;100.00
9899;BME280;4988;49.238;6.698;2022-12-29T05:01:49;98319.88;;;9.79;100.00
9899;BME280;4988;49.238;6.698;2022-12-29T05:04:14;98322.28;;;9.68;100.00
9899;BME280;4988;49.238;6.698;2022-12-29T05:06:40;98325.88;;;9.66;100.00
9899;BME280;4988;49.238;6.698;2022-12-29T05:09:05;98308.03;;;9.69;100.00
9899;BME280;4988;49.238;6.698;2022-12-29T05:11:30;98318.78;;;9.67;100.00
9899;BME280;4988;49.238;6.698;2022-12-29T05:13:56;98308.63;;;9.74;100.00
9899;BME280;4988;49.238;6.698;2022-12-29T05:16:21;98305.72;;;9.78;100.00
9899;BME280;4988;49.238;6.698;2022-12-29T05:18:46;98309.06;;;9.82;100.00
9899;BME280;4988;49.238;6.698;2022-12-29T05:21:12;98301.69;;;9.87;100.00
9899;BME280;4988;49.238;6.698;2022-12-29T05:23:37;98297.91;;;9.91;100.00
9899;BME280;4988;49.238;6.698;2022-12-29T05:26:02;98305.53;;;9.97;99.06
9899;BME280;4988;49.238;6.698;2022-12-29T05:28:28;98305.38;;;10.01;98.07
9899;BME280;4988;49.238;6.698;2022-12-29T05:30:53;98307.09;;;10.02;97.63
9899;BME280;4988;49.238;6.698;2022-12-29T05:33:19;98312.72;;;10.11;96.46
9899;BME280;4988;49.238;6.698;2022-12-29T05:35:44;98306.53;;;10.11;96.25
9899;BME280;4988;49.238;6.698;2022-12-29T05:38:10;98303.72;;;10.14;96.30
9899;BME280;4988;49.238;6.698;2022-12-29T05:40:35;98312.06;;;10.08;96.31
9899;BME280;4988;49.238;6.698;2022-12-29T05:43:00;98296.16;;;10.06;95.59
9899;BME280;4988;49.238;6.698;2022-12-29T05:45:26;98304.56;;;10.14;95.12
9899;BME280;4988;49.238;6.698;2022-12-29T05:47:51;98296.31;;;10.19;94.72
9899;BME280;4988;49.238;6.698;2022-12-29T05:50:16;98297.84;;;10.23;94.48
9899;BME280;4988;49.238;6.698;2022-12-29T05:52:42;98304.31;;;10.19;94.31
9899;BME280;4988;49.238;6.698;2022-12-29T05:55:07;98307.81;;;10.20;93.88
9899;BME280;4988;49.238;6.698;2022-12-29T05:57:33;98306.03;;;10.20;93.87
9899;BME280;4988;49.238;6.698;2022-12-29T05:59:58;98298.34;;;10.30;93.11
9899;BME280;4988;49.238;6.698;2022-12-29T06:02:23;98303.75;;;10.28;92.37
9899;BME280;4988;49.238;6.698;2022-12-29T06:04:49;98303.47;;;10.33;91.83
9899;BME280;4988;49.238;6.698;2022-12-29T06:07:14;98293.38;;;10.40;91.72
9899;BME280;4988;49.238;6.698;2022-12-29T06:09:39;98305.91;;;10.38;91.02
9899;BME280;4988;49.238;6.698;2022-12-29T06:12:05;98309.50;;;10.37;91.56
9899;BME280;4988;49.238;6.698;2022-12-29T06:14:30;98313.09;;;10.36;91.70
9899;BME280;4988;49.238;6.698;2022-12-29T06:16:55;98311.38;;;10.35;91.03
9899;BME280;4988;49.238;6.698;2022-12-29T06:19:21;98310.44;;;10.36;91.56
9899;BME280;4988;49.238;6.698;2022-12-29T06:21:46;98314.84;;;10.37;90.93
9899;BME280;4988;49.238;6.698;2022-12-29T06:24:11;98325.78;;;10.46;90.36
9899;BME280;4988;49.238;6.698;2022-12-29T06:26:37;98328.56;;;10.45;90.53
9899;BME280;4988;49.238;6.698;2022-12-29T06:29:02;98331.38;;;10.42;90.80
9899;BME280;4988;49.238;6.698;2022-12-29T06:31:28;98333.97;;;10.43;90.82
9899;BME280;4988;49.238;6.698;2022-12-29T06:33:53;98338.41;;;10.43;91.36
9899;BME280;4988;49.238;6.698;2022-12-29T06:36:18;98334.13;;;10.40;92.06
9899;BME280;4988;49.238;6.698;2022-12-29T06:38:43;98336.28;;;10.34;92.37
9899;BME280;4988;49.238;6.698;2022-12-29T06:41:09;98340.81;;;10.32;92.75
9899;BME280;4988;49.238;6.698;2022-12-29T06:43:34;98337.22;;;10.33;92.26
9899;BME280;4988;49.238;6.698;2022-12-29T06:46:03;98347.66;;;10.36;92.16
9899;BME280;4988;49.238;6.698;2022-12-29T06:48:29;98341.19;;;10.41;91.51
9899;BME280;4988;49.238;6.698;2022-12-29T06:50:54;98335.19;;;10.38;91.85
9899;BME280;4988;49.238;6.698;2022-12-29T06:53:19;98348.13;;;10.44;92.00
9899;BME280;4988;49.238;6.698;2022-12-29T06:55:45;98338.63;;;10.54;91.16
9899;BME280;4988;49.238;6.698;2022-12-29T06:58:10;98352.56;;;10.59;91.48
9899;BME280;4988;49.238;6.698;2022-12-29T07:00:35;98364.53;;;10.67;91.29
9899;BME280;4988;49.238;6.698;2022-12-29T07:03:01;98367.38;;;10.64;91.05
9899;BME280;4988;49.238;6.698;2022-12-29T07:05:26;98353.97;;;10.65;91.42
9899;BME280;4988;49.238;6.698;2022-12-29T07:07:53;98364.03;;;10.60;91.91
9899;BME280;4988;49.238;6.698;2022-12-29T07:10:19;98365.75;;;10.61;92.44
9899;BME280;4988;49.238;6.698;2022-12-29T07:12:44;98361.13;;;10.65;92.93
9899;BME280;4988;49.238;6.698;2022-12-29T07:15:09;98372.50;;;10.52;96.39
9899;BME280;4988;49.238;6.698;2022-12-29T07:17:35;98382.44;;;10.33;99.79
9899;BME280;4988;49.238;6.698;2022-12-29T07:20:00;98366.50;;;10.17;100.00
9899;BME280;4988;49.238;6.698;2022-12-29T07:22:25;98360.75;;;10.08;100.00
9899;BME280;4988;49.238;6.698;2022-12-29T07:24:51;98387.44;;;10.07;100.00
9899;BME280;4988;49.238;6.698;2022-12-29T07:27:16;98379.03;;;9.98;100.00
9899;BME280;4988;49.238;6.698;2022-12-29T07:29:41;98376.38;;;9.98;100.00
9899;BME280;4988;49.238;6.698;2022-12-29T07:32:07;98386.22;;;9.96;100.00
9899;BME280;4988;49.238;6.698;2022-12-29T07:34:32;98397.63;;;9.98;100.00
9899;BME280;4988;49.238;6.698;2022-12-29T07:36:57;98378.78;;;10.03;100.00
9899;BME280;4988;49.238;6.698;2022-12-29T07:39:23;98397.28;;;10.05;100.00
9899;BME280;4988;49.238;6.698;2022-12-29T07:41:48;98384.69;;;10.08;100.00
9899;BME280;4988;49.238;6.698;2022-12-29T07:44:13;98401.69;;;10.06;100.00
9899;BME280;4988;49.238;6.698;2022-12-29T07:46:39;98394.47;;;10.08;100.00
9899;BME280;4988;49.238;6.698;2022-12-29T07:49:04;98404.00;;;10.12;100.00
9899;BME280;4988;49.238;6.698;2022-12-29T07:51:29;98394.53;;;10.06;100.00
9899;BME280;4988;49.238;6.698;2022-12-29T07:53:54;98408.88;;;10.04;100.00
9899;BME280;4988;49.238;6.698;2022-12-29T07:56:20;98415.41;;;9.98;100.00
9899;BME280;4988;49.238;6.698;2022-12-29T07:58:45;98419.09;;;9.95;100.00
9899;BME280;4988;49.238;6.698;2022-12-29T08:01:10;98408.53;;;9.94;100.00
9899;BME280;4988;49.238;6.698;2022-12-29T08:03:36;98414.97;;;9.90;100.00
9899;BME280;4988;49.238;6.698;2022-12-29T08:06:01;98412.41;;;9.88;100.00
9899;BME280;4988;49.238;6.698;2022-12-29T08:08:27;98406.66;;;9.96;100.00
9899;BME280;4988;49.238;6.698;2022-12-29T08:10:52;98408.72;;;9.91;100.00
9899;BME280;4988;49.238;6.698;2022-12-29T08:13:17;98420.97;;;9.93;100.00
9899;BME280;4988;49.238;6.698;2022-12-29T08:15:43;98425.25;;;9.96;100.00
9899;BME280;4988;49.238;6.698;2022-12-29T08:18:08;98433.78;;;10.03;100.00
9899;BME280;4988;49.238;6.698;2022-12-29T08:20:33;98430.69;;;10.10;100.00
9899;BME280;4988;49.238;6.698;2022-12-29T08:22:59;98434.09;;;10.12;100.00
9899;BME280;4988;49.238;6.698;2022-12-29T08:25:24;98442.00;;;10.14;100.00
9899;BME280;4988;49.238;6.698;2022-12-29T08:27:49;98428.78;;;10.12;100.00
9899;BME280;4988;49.238;6.698;2022-12-29T08:30:14;98449.78;;;10.17;100.00
9899;BME280;4988;49.238;6.698;2022-12-29T08:32:40;98453.50;;;10.14;100.00
9899;BME280;4988;49.238;6.698;2022-12-29T08:35:06;98451.94;;;10.10;100.00
9899;BME280;4988;49.238;6.698;2022-12-29T08:37:32;98467.22;;;10.07;100.00
9899;BME280;4988;49.238;6.698;2022-12-29T08:39:58;98455.69;;;10.06;100.00
9899;BME280;4988;49.238;6.698;2022-12-29T08:42:25;98455.88;;;10.03;100.00
9899;BME280;4988;49.238;6.698;2022-12-29T08:44:55;98459.25;;;10.07;100.00
9899;BME280;4988;49.238;6.698;2022-12-29T08:47:21;98458.38;;;10.06;100.00
9899;BME280;4988;49.238;6.698;2022-12-29T08:49:46;98451.94;;;10.10;100.00
9899;BME280;4988;49.238;6.698;2022-12-29T08:52:11;98472.19;;;10.13;100.00
9899;BME280;4988;49.238;6.698;2022-12-29T08:54:37;98472.00;;;10.16;100.00
9899;BME280;4988;49.238;6.698;2022-12-29T08:57:02;98469.34;;;10.16;100.00
9899;BME280;4988;49.238;6.698;2022-12-29T08:59:27;98458.56;;;10.19;100.00
9899;BME280;4988;49.238;6.698;2022-12-29T09:01:53;98463.09;;;10.17;100.00
9899;BME280;4988;49.238;6.698;2022-12-29T09:04:18;98460.34;;;10.19;100.00
9899;BME280;4988;49.238;6.698;2022-12-29T09:06:45;98456.75;;;10.20;100.00
9899;BME280;4988;49.238;6.698;2022-12-29T09:09:10;98477.00;;;10.22;100.00
9899;BME280;4988;49.238;6.698;2022-12-29T09:11:36;98468.25;;;10.20;100.00
9899;BME280;4988;49.238;6.698;2022-12-29T09:14:01;98486.78;;;10.22;100.00
9899;BME280;4988;49.238;6.698;2022-12-29T09:16:26;98488.59;;;10.21;100.00
9899;BME280;4988;49.238;6.698;2022-12-29T09:18:52;98476.41;;;10.17;100.00
9899;BME280;4988;49.238;6.698;2022-12-29T09:21:17;98475.66;;;10.15;100.00
9899;BME280;4988;49.238;6.698;2022-12-29T09:23:43;98481.72;;;10.17;100.00
9899;BME280;4988;49.238;6.698;2022-12-29T09:26:08;98491.41;;;10.18;100.00
9899;BME280;4988;49.238;6.698;2022-12-29T09:28:34;98493.63;;;10.26;100.00
9899;BME280;4988;49.238;6.698;2022-12-29T09:31:00;98500.59;;;10.28;100.00
9899;BME280;4988;49.238;6.698;2022-12-29T09:33:26;98519.16;;;10.30;100.00
9899;BME280;4988;49.238;6.698;2022-12-29T09:35:54;98519.41;;;10.25;100.00
9899;BME280;4988;49.238;6.698;2022-12-29T09:38:20;98517.31;;;10.14;100.00
9899;BME280;4988;49.238;6.698;2022-12-29T09:40:50;98515.09;;;10.07;100.00
9899;BME280;4988;49.238;6.698;2022-12-29T09:46:07;98525.19;;;10.00;100.00
9899;BME280;4988;49.238;6.698;2022-12-29T09:48:44;98538.56;;;9.98;100.00
9899;BME280;4988;49.238;6.698;2022-12-29T09:51:15;98537.88;;;9.95;100.00
9899;BME280;4988;49.238;6.698;2022-12-29T09:53:47;98548.06;;;9.87;100.00
9899;BME280;4988;49.238;6.698;2022-12-29T09:56:17;98551.09;;;9.79;100.00
9899;BME280;4988;49.238;6.698;2022-12-29T09:58:59;98548.88;;;9.71;100.00
9899;BME280;4988;49.238;6.698;2022-12-29T10:01:34;98547.38;;;9.65;100.00
9899;BME280;4988;49.238;6.698;2022-12-29T10:04:02;98551.28;;;9.58;100.00
9899;BME280;4988;49.238;6.698;2022-12-29T10:06:57;98549.91;;;9.51;100.00
9899;BME280;4988;49.238;6.698;2022-12-29T10:09:42;98546.44;;;9.49;100.00
9899;BME280;4988;49.238;6.698;2022-12-29T10:12:46;98555.28;;;9.49;100.00
9899;BME280;4988;49.238;6.698;2022-12-29T10:15:38;98549.13;;;9.49;100.00
9899;BME280;4988;49.238;6.698;2022-12-29T10:18:10;98546.97;;;9.56;100.00
9899;BME280;4988;49.238;6.698;2022-12-29T10:20:58;98547.88;;;9.56;100.00
9899;BME280;4988;49.238;6.698;2022-12-29T10:23:58;98548.56;;;9.60;100.00
9899;BME280;4988;49.238;6.698;2022-12-29T10:26:31;98549.09;;;9.66;100.00
9899;BME280;4988;49.238;6.698;2022-12-29T10:29:04;98551.53;;;9.71;100.00
9899;BME280;4988;49.238;6.698;2022-12-29T10:34:22;98535.00;;;9.82;100.00
9899;BME280;4988;49.238;6.698;2022-12-29T10:36:52;98531.84;;;9.91;100.00
9899;BME280;4988;49.238;6.698;2022-12-29T10:39:34;98534.19;;;9.97;100.00
9899;BME280;4988;49.238;6.698;2022-12-29T10:42:25;98532.91;;;10.05;100.00
9899;BME280;4988;49.238;6.698;2022-12-29T10:44:51;98523.06;;;10.07;100.00
9899;BME280;4988;49.238;6.698;2022-12-29T10:47:21;98525.53;;;10.10;100.00
9899;BME280;4988;49.238;6.698;2022-12-29T10:49:49;98529.44;;;10.20;100.00
9899;BME280;4988;49.238;6.698;2022-12-29T10:52:17;98519.41;;;10.25;100.00
9899;BME280;4988;49.238;6.698;2022-12-29T10:54:58;98514.69;;;10.30;100.00
9899;BME280;4988;49.238;6.698;2022-12-29T10:57:40;98525.91;;;10.36;100.00
9899;BME280;4988;49.238;6.698;2022-12-29T11:00:17;98520.47;;;10.39;100.00
9899;BME280;4988;49.238;6.698;2022-12-29T11:05:23;98518.91;;;10.51;100.00
9899;BME280;4988;49.238;6.698;2022-12-29T11:07:58;98509.84;;;10.55;100.00
9899;BME280;4988;49.238;6.698;2022-12-29T11:12:59;98510.06;;;10.66;100.00
9899;BME280;4988;49.238;6.698;2022-12-29T11:15:25;98512.59;;;10.69;100.00
9899;BME280;4988;49.238;6.698;2022-12-29T11:17:52;98508.09;;;10.70;99.89
9899;BME280;4988;49.238;6.698;2022-12-29T11:20:38;98517.91;;;10.69;99.32
9899;BME280;4988;49.238;6.698;2022-12-29T11:23:20;98519.78;;;10.67;99.06
9899;BME280;4988;49.238;6.698;2022-12-29T11:26:05;98519.00;;;10.65;97.34
9899;BME280;4988;49.238;6.698;2022-12-29T11:28:31;98519.19;;;10.62;97.00
9899;BME280;4988;49.238;6.698;2022-12-29T11:31:02;98526.50;;;10.58;97.87
9899;BME280;4988;49.238;6.698;2022-12-29T11:33:29;98523.97;;;10.55;97.81
9899;BME280;4988;49.238;6.698;2022-12-29T11:36:16;98533.69;;;10.56;98.61
9899;BME280;4988;49.238;6.698;2022-12-29T11:38:47;98530.44;;;10.51;97.58
9899;BME280;4988;49.238;6.698;2022-12-29T11:41:23;98543.75;;;10.51;97.20
9899;BME280;4988;49.238;6.698;2022-12-29T11:43:49;98540.03;;;10.54;98.19
9899;BME280;4988;49.238;6.698;2022-12-29T11:46:31;98535.56;;;10.54;95.12
9899;BME280;4988;49.238;6.698;2022-12-29T11:48:58;98544.19;;;10.59;94.82
9899;BME280;4988;49.238;6.698;2022-12-29T11:51:49;98533.44;;;10.61;94.86
9899;BME280;4988;49.238;6.698;2022-12-29T11:54:27;98532.41;;;10.64;93.83
9899;BME280;4988;49.238;6.698;2022-12-29T11:56:55;98525.00;;;10.69;93.98
9899;BME280;4988;49.238;6.698;2022-12-29T12:01:52;98520.56;;;10.69;88.69
9899;BME280;4988;49.238;6.698;2022-12-29T12:04:21;98521.31;;;10.71;89.98
9899;BME280;4988;49.238;6.698;2022-12-29T12:09:27;98509.13;;;10.67;88.94
9899;BME280;4988;49.238;6.698;2022-12-29T12:11:55;98504.84;;;10.65;89.56
9899;BME280;4988;49.238;6.698;2022-12-29T12:14:28;98517.38;;;10.62;87.94
9899;BME280;4988;49.238;6.698;2022-12-29T12:16:59;98519.09;;;10.64;88.34
9899;BME280;4988;49.238;6.698;2022-12-29T12:19:47;98510.25;;;10.63;90.18
9899;BME280;4988;49.238;6.698;2022-12-29T12:22:45;98515.50;;;10.65;89.84
9899;BME280;4988;49.238;6.698;2022-12-29T12:25:18;98505.28;;;10.57;89.47
9899;BME280;4988;49.238;6.698;2022-12-29T12:30:37;98508.19;;;10.52;90.89
9899;BME280;4988;49.238;6.698;2022-12-29T12:33:18;98507.25;;;10.53;91.20
9899;BME280;4988;49.238;6.698;2022-12-29T12:41:41;98503.13;;;10.48;92.07
9899;BME280;4988;49.238;6.698;2022-12-29T12:44:24;98495.94;;;10.50;91.28
9899;BME280;4988;49.238;6.698;2022-12-29T12:49:55;98494.22;;;10.49;91.33
9899;BME280;4988;49.238;6.698;2022-12-29T12:55:57;98482.78;;;10.46;92.26
9899;BME280;4988;49.238;6.698;2022-12-29T13:06:26;98493.53;;;10.45;91.63
9899;BME280;4988;49.238;6.698;2022-12-29T13:09:23;98496.97;;;10.47;91.96
9899;BME280;4988;49.238;6.698;2022-12-29T13:14:52;98503.22;;;10.46;90.70
9899;BME280;4988;49.238;6.698;2022-12-29T13:17:46;98481.94;;;10.46;90.87
9899;BME280;4988;49.238;6.698;2022-12-29T13:20:39;98478.41;;;10.45;90.26
9899;BME280;4988;49.238;6.698;2022-12-29T13:25:50;98501.50;;;10.45;90.30
9899;BME280;4988;49.238;6.698;2022-12-29T13:28:32;98497.97;;;10.44;89.22
9899;BME280;4988;49.238;6.698;2022-12-29T13:31:10;98501.50;;;10.45;89.97
9899;BME280;4988;49.238;6.698;2022-12-29T13:36:56;98492.31;;;10.51;85.80
9899;BME280;4988;49.238;6.698;2022-12-29T13:39:26;98485.97;;;10.53;84.30
9899;BME280;4988;49.238;6.698;2022-12-29T13:41:56;98488.53;;;10.55;83.86
9899;BME280;4988;49.238;6.698;2022-12-29T13:44:27;98498.94;;;10.59;84.01
9899;BME280;4988;49.238;6.698;2022-12-29T13:46:56;98506.03;;;10.59;82.67
9899;BME280;4988;49.238;6.698;2022-12-29T13:49:24;98508.91;;;10.56;81.95
9899;BME280;4988;49.238;6.698;2022-12-29T13:51:59;98518.59;;;10.57;82.30
9899;BME280;4988;49.238;6.698;2022-12-29T13:54:39;98512.66;;;10.52;81.99
9899;BME280;4988;49.238;6.698;2022-12-29T13:57:10;98519.00;;;10.49;81.27
9899;BME280;4988;49.238;6.698;2022-12-29T13:59:44;98523.56;;;10.47;81.71
9899;BME280;4988;49.238;6.698;2022-12-29T14:02:37;98522.00;;;10.43;81.27
9899;BME280;4988;49.238;6.698;2022-12-29T14:07:42;98533.53;;;10.43;82.88
9899;BME280;4988;49.238;6.698;2022-12-29T14:10:30;98541.84;;;10.37;82.93
9899;BME280;4988;49.238;6.698;2022-12-29T14:13:16;98537.59;;;10.33;83.24
9899;BME280;4988;49.238;6.698;2022-12-29T14:15:45;98547.47;;;10.31;84.41
9899;BME280;4988;49.238;6.698;2022-12-29T14:18:18;98552.00;;;10.29;85.24
9899;BME280;4988;49.238;6.698;2022-12-29T14:28:49;98552.09;;;10.27;86.03
9899;BME280;4988;49.238;6.698;2022-12-29T14:33:40;98554.91;;;10.24;86.82
9899;BME280;4988;49.238;6.698;2022-12-29T14:36:39;98554.81;;;10.26;87.90
9899;BME280;4988;49.238;6.698;2022-12-29T14:39:36;98555.00;;;10.23;88.40
9899;BME280;4988;49.238;6.698;2022-12-29T14:42:12;98563.69;;;10.26;87.98
9899;BME280;4988;49.238;6.698;2022-12-29T14:44:51;98561.78;;;10.28;88.05
9899;BME280;4988;49.238;6.698;2022-12-29T14:47:35;98565.22;;;10.30;88.46
9899;BME280;4988;49.238;6.698;2022-12-29T14:50:17;98569.94;;;10.25;88.75
9899;BME280;4988;49.238;6.698;2022-12-29T14:52:47;98560.41;;;10.21;88.33
9899;BME280;4988;49.238;6.698;2022-12-29T14:57:50;98571.19;;;10.18;89.17
9899;BME280;4988;49.238;6.698;2022-12-29T15:02:46;98595.31;;;10.15;87.56
9899;BME280;4988;49.238;6.698;2022-12-29T15:06:13;98592.66;;;10.15;87.27
9899;BME280;4988;49.238;6.698;2022-12-29T15:08:22;98589.22;;;10.13;87.24
9899;BME280;4988;49.238;6.698;2022-12-29T15:10:57;98586.66;;;10.11;87.68
9899;BME280;4988;49.238;6.698;2022-12-29T15:13:32;98593.75;;;10.11;87.26
9899;BME280;4988;49.238;6.698;2022-12-29T15:15:58;98613.47;;;10.07;87.78
9899;BME280;4988;49.238;6.698;2022-12-29T15:18:26;98602.59;;;10.11;87.97
9899;BME280;4988;49.238;6.698;2022-12-29T15:21:12;98595.31;;;10.15;86.90
9899;BME280;4988;49.238;6.698;2022-12-29T15:23:38;98597.28;;;10.11;87.48
9899;BME280;4988;49.238;6.698;2022-12-29T15:26:06;98601.03;;;10.07;87.59
9899;BME280;4988;49.238;6.698;2022-12-29T15:28:39;98605.50;;;10.07;88.35